x

Columbia River Bar - 20nm West Of Columbia River Mouth (46029) Wave Buoy

7:50pm - Tue 21st Nov 2017 All times are PST. -8 hours from GMT.

  • Sig Wave height 11.5ft
  • Swell Direction
  • Peak Period 10s
  • Average Period 7s
  • Wind
    29mph, 36mph gusts
  • Sea Temp 53°f
  • Air Temp 56°f
  • Sea Pressure 1011.3mb
  • Columbia River Bar - 20nm West Of Columbia River Mouth
  • Columbia River Bar - 20nm West Of Columbia River Mouth

More Historic Weather Station data

Upgrade to MSW Pro to gain access to the past 30 days of data for over 8000 Wavebouys and Weather Stations around the globe.

Join

Comparision Forecast

View Surf forecast
   
Tue 11/21 7:50pm 11.5ft 10s 7s 29 36 mph 1011.3mb 53f 56f
6:50pm 12ft 10s 7s 29 36 mph 1010.2mb 53f 56f
5:50pm 13.5ft 10s 7s 25 29 mph 1009.5mb 53f 56f
4:50pm 13.5ft 9s 7s 27 31 mph 1009.4mb 53f 56f
3:50pm 13ft 9s 7s 27 31 mph 1009.4mb 53f 56f
2:50pm 12ft 8s 7s 29 34 mph 1008.8mb 53f 57f
1:50pm 11.5ft 8s 6s 31 38 mph 1008.5mb 53f 57f
12:50pm 8.5ft 8s 6s 31 38 mph 1008.1mb 53f 56f
11:50am 8ft 8s 6s 34 40 mph 1008.4mb 53f 56f
10:50am 8ft 8s 6s 29 34 mph 1009.3mb 53f 57f
9:50am 8ft 8s 6s 22 25 mph 1009.6mb 53f 56f
8:50am 7ft 8s 6s 22 25 mph 1009.9mb 53f 56f
7:50am 7ft 6s 5s 18 22 mph 1010mb 53f 55f
6:50am 7.5ft 9s 5s 29 36 mph 1009.4mb 53f 56f
5:50am 6.5ft 9s 5s 27 31 mph 1009.4mb 53f 55f
4:50am 6.5ft 9s 6s 27 34 mph 1010.1mb 53f 55f
3:50am 6.5ft 9s 6s 20 25 mph 1010.9mb 53f 53f
2:50am 7ft 8s 6s 20 25 mph 1011.5mb 53f 51f
1:50am 7ft 9s 6s 20 25 mph 1011.8mb 53f 51f
12:50am 7ft 9s 7s 20 22 mph 1012.5mb 53f 51f
Mon 11/20 11:50pm 7ft 9s 7s 20 25 mph 1012.9mb 53f 50f
10:50pm 7.5ft 10s 7s 20 22 mph 1013.9mb 53f 50f
9:50pm 7ft 9s 7s 16 18 mph 1014.9mb 53f 50f
8:50pm 7.5ft 9s 7s 13 16 mph 1015.1mb 53f 51f
7:50pm 8ft 9s 7s 13 16 mph 1014.8mb 53f 51f
6:50pm 10ft 10s 8s 11 13 mph 1014.6mb 53f 51f
5:50pm 9.5ft 9s 8s 11 16 mph 1013.8mb 53f 51f
4:50pm 10.5ft 10s 8s 9 11 mph 1013.9mb 53f 51f
3:50pm 11ft 10s 8s 7 9 mph 1013.1mb 53f 51f
2:50pm 11ft 10s 8s 4 9 mph 1012.6mb 53f 52f
1:50pm 13ft 10s 8s 9 11 mph 1012.3mb 53f 52f
12:50pm 14ft 11s 8s 11 13 mph 1011.1mb 53f 52f
11:50am 14ft 11s 8s 7 9 mph 1010mb 53f 52f
10:50am 13.5ft 10s 8s 9 13 mph 1008.7mb 53f 52f
9:50am 14ft 10s 8s 13 18 mph 1007mb 53f 52f
8:50am 14.5ft 11s 8s 16 20 mph 1005.4mb 53f 52f
7:50am 14.5ft 11s 8s 18 25 mph 1003mb 53f 51f
6:50am 17ft 11s 9s 18 25 mph 1000.9mb 53f 51f
5:50am 15ft 11s 8s 22 29 mph 1000mb 53f 51f
4:50am 16.5ft 11s 8s 11 18 mph 999.1mb 53f 51f
3:50am 19.5ft 11s 9s 25 29 mph 998.9mb 53f 53f
2:50am 19.5ft 11s 8s 27 34 mph 999.4mb 53f 54f
1:50am 19.5ft 11s 8s 31 36 mph 999.9mb 53f 53f
12:50am 20.5ft 11s 8s 34 45 mph 1000.3mb 53f 53f
Sun 11/19 11:50pm 17.5ft 11s 8s 31 40 mph 1000.7mb 53f 53f
10:50pm 20ft 11s 8s 36 45 mph 1001.1mb 53f 53f
9:50pm 17.5ft 11s 8s 40 51 mph 1000.7mb 53f 53f
8:50pm 20ft 10s 8s 40 49 mph 1000.3mb 53f 53f
7:50pm 20.5ft 9s 8s 38 49 mph 1000.9mb 53f 53f
6:50pm 16.5ft 9s 7s 40 49 mph 1001.1mb 53f 52f
5:50pm 15.5ft 8s 7s 36 45 mph 1002mb 53f 52f
4:50pm 15.5ft 8s 7s 38 47 mph 1003.3mb 53f 51f
3:50pm 14ft 8s 7s 36 45 mph 1004.4mb 53f 51f
2:50pm 13ft 8s 7s 36 45 mph 1005mb 53f 52f
1:50pm 13ft 9s 7s 36 45 mph 1006.5mb 53f 52f
12:50pm 13ft 7s 7s 36 45 mph 1008.1mb 53f 52f
11:50am 12.5ft 8s 6s 34 43 mph 1009.4mb 53f 51f
10:50am 11.5ft 6s 6s 34 40 mph 1011mb 53f 51f
9:50am 11.5ft 7s 6s 34 43 mph 1011.7mb 53f 51f
8:50am 11ft 8s 6s 31 36 mph 1012.5mb 53f 51f
7:50am 10ft 8s 6s 29 36 mph 1013.3mb 53f 51f
6:50am 10ft 8s 6s 29 36 mph 1014.2mb 53f 51f
5:50am 9ft 8s 6s 29 34 mph 1014.7mb 53f 51f
4:50am 9ft 7s 6s 27 34 mph 1015.2mb 53f 51f
3:50am 8ft 6s 6s 25 31 mph 1016mb 53f 51f
2:50am 7.5ft 6s 6s 25 29 mph 1017mb 53f 51f
1:50am 7ft 9s 6s 25 29 mph 1016.9mb 53f 51f
12:50am 7ft 8s 5s 22 27 mph 1017.9mb 53f 51f
Sat 11/18 11:50pm 6ft 8s 5s 22 29 mph 1018.5mb 53f 51f
10:50pm 6ft 8s 5s 25 27 mph 1018.5mb 53f 51f
9:50pm 6ft 8s 5s 22 27 mph 1018.8mb 53f 51f
8:50pm 5ft 7s 5s 20 25 mph 1019.4mb 53f 51f
7:50pm 5ft 8s 5s 20 25 mph 1020mb 53f 51f
6:50pm 4.5ft 8s 5s 18 20 mph 1020.5mb 54f 51f
5:50pm 4.5ft 8s 5s 16 18 mph 1020.7mb 53f 51f
4:50pm 4.5ft 8s 5s 16 20 mph 1020.7mb 53f 51f
3:50pm 4.5ft 8s 5s 16 18 mph 1020.8mb 53f 51f
2:50pm 4.5ft 8s 6s 13 16 mph 1021.1mb 53f 51f
1:50pm 4.5ft 8s 5s 16 18 mph 1021.6mb 53f 51f
12:50pm 4.5ft 8s 5s 13 16 mph 1022.1mb 53f 51f
11:50am 4.5ft 8s 5s 13 16 mph 1023mb 53f 51f
10:50am 4.5ft 7s 5s 16 18 mph 1023.5mb 53f 51f
9:50am 4.5ft 8s 5s 13 18 mph 1023.9mb 53f 51f
8:50am 5ft 7s 5s 16 18 mph 1024.2mb 53f 51f
7:50am 4.5ft 8s 5s 16 20 mph 1024.4mb 53f 51f